Time;durP1;ratioP1;P1;durP2;ratioP2;P2;SDS_P1;SDS_P2;PMS_P1;PMS_P2;Temp;Humidity;BMP_temperature;BMP_pressure;BME280_temperature;BME280_humidity;BME280_pressure;Samples;Min_cycle;Max_cycle;Signal;HPM_P1;HPM_P2
2023/04/19 00:02:05;;;;;;;21.70;13.60;;;9.70;99.90;;;;;;5010584;28;20541;-74
2023/04/19 00:04:32;;;;;;;19.03;13.80;;;9.80;99.90;;;;;;5010421;28;20661;-74
2023/04/19 00:06:59;;;;;;;24.50;15.03;;;9.70;99.90;;;;;;5010485;28;21139;-74
2023/04/19 00:09:25;;;;;;;29.40;15.53;;;9.80;99.90;;;;;;5010423;28;20505;-74
2023/04/19 00:11:52;;;;;;;26.23;15.27;;;9.70;99.90;;;;;;5010069;28;20505;-74
2023/04/19 00:14:19;;;;;;;24.70;14.60;;;9.70;99.90;;;;;;5007062;28;21027;-74
2023/04/19 00:16:45;;;;;;;23.80;15.20;;;9.70;99.90;;;;;;5010182;28;20466;-74
2023/04/19 00:19:13;;;;;;;25.13;15.13;;;9.70;99.90;;;;;;5010174;28;20478;-74
2023/04/19 00:21:40;;;;;;;22.67;14.47;;;9.70;99.90;;;;;;5002348;28;20526;-75
2023/04/19 00:24:07;;;;;;;24.73;15.33;;;9.70;99.90;;;;;;4999457;28;20443;-74
2023/04/19 00:26:33;;;;;;;24.77;15.70;;;9.70;99.90;;;;;;5010083;28;20451;-74
2023/04/19 00:29:00;;;;;;;23.10;15.40;;;9.70;99.90;;;;;;5009376;28;20536;-74
2023/04/19 00:31:26;;;;;;;25.43;15.77;;;9.70;99.90;;;;;;5010131;28;20443;-74
2023/04/19 00:33:53;;;;;;;25.50;16.17;;;9.70;99.90;;;;;;5009995;28;21029;-74
2023/04/19 00:36:21;;;;;;;23.73;15.57;;;9.60;99.90;;;;;;5010196;28;20467;-74
2023/04/19 00:38:48;;;;;;;24.17;16.00;;;9.70;99.90;;;;;;5009563;28;20478;-74
2023/04/19 00:41:15;;;;;;;25.77;15.13;;;9.70;99.90;;;;;;5010488;28;20489;-74
2023/04/19 00:43:42;;;;;;;24.67;15.73;;;9.70;99.90;;;;;;5012479;28;20451;-74
2023/04/19 00:46:09;;;;;;;26.67;16.43;;;9.70;99.90;;;;;;5013612;28;20459;-74
2023/04/19 00:48:36;;;;;;;26.83;16.17;;;9.70;99.90;;;;;;5009452;28;20498;-74
2023/04/19 00:51:03;;;;;;;25.60;16.90;;;9.70;99.90;;;;;;5012535;28;20880;-75
2023/04/19 00:53:31;;;;;;;23.27;16.30;;;9.70;99.90;;;;;;5013486;28;20451;-75
2023/04/19 00:56:01;;;;;;;23.70;15.83;;;9.70;99.90;;;;;;5013282;28;20995;-75
2023/04/19 00:58:30;;;;;;;25.20;16.30;;;9.70;99.90;;;;;;5013693;28;20505;-74
2023/04/19 01:00:56;;;;;;;27.10;16.40;;;9.70;99.90;;;;;;5013221;28;20463;-74
2023/04/19 01:03:26;;;;;;;26.10;16.30;;;9.70;99.90;;;;;;5013233;28;20950;-74
2023/04/19 01:05:52;;;;;;;24.30;16.90;;;9.60;99.90;;;;;;5006743;28;20466;-74
2023/04/19 01:08:19;;;;;;;26.63;16.47;;;9.70;99.90;;;;;;5009049;28;21011;-74
2023/04/19 01:10:47;;;;;;;24.03;15.90;;;9.60;99.90;;;;;;5009958;28;20439;-75
2023/04/19 01:13:14;;;;;;;25.50;17.40;;;9.60;99.90;;;;;;5012629;28;20459;-74
2023/04/19 01:15:40;;;;;;;24.67;17.03;;;9.60;99.90;;;;;;5013184;28;21072;-74
2023/04/19 01:18:07;;;;;;;30.23;17.93;;;9.60;99.90;;;;;;5013160;28;20459;-74
2023/04/19 01:20:33;;;;;;;24.93;16.00;;;9.60;99.90;;;;;;5012096;28;20529;-74
2023/04/19 01:23:01;;;;;;;24.53;16.10;;;9.60;99.90;;;;;;5013165;28;20489;-74
2023/04/19 01:25:28;;;;;;;24.40;16.03;;;9.60;99.90;;;;;;5003140;28;20459;-74
2023/04/19 01:27:55;;;;;;;28.17;18.07;;;9.60;99.90;;;;;;5011373;28;20459;-74
2023/04/19 01:30:21;;;;;;;25.97;16.43;;;9.60;99.90;;;;;;5012936;28;20478;-74
2023/04/19 01:32:48;;;;;;;23.57;16.53;;;9.60;99.90;;;;;;5012305;28;20533;-74
2023/04/19 01:35:15;;;;;;;25.60;17.13;;;9.60;99.90;;;;;;5012529;28;20544;-74
2023/04/19 01:37:41;;;;;;;23.80;17.30;;;9.70;99.90;;;;;;5010438;28;21057;-74
2023/04/19 01:40:10;;;;;;;26.53;17.40;;;9.70;99.90;;;;;;5011864;28;20552;-74
2023/04/19 01:42:37;;;;;;;31.30;17.90;;;9.70;99.90;;;;;;5000410;28;20472;-74
2023/04/19 01:45:04;;;;;;;23.17;16.60;;;9.70;99.90;;;;;;5007224;28;20450;-74
2023/04/19 01:47:31;;;;;;;23.60;16.10;;;9.70;99.90;;;;;;5012745;28;20455;-74
2023/04/19 01:49:58;;;;;;;27.73;17.00;;;9.70;99.90;;;;;;5011739;28;20475;-74
2023/04/19 01:52:24;;;;;;;25.17;16.93;;;9.60;99.90;;;;;;5012560;28;20513;-75
2023/04/19 01:54:51;;;;;;;25.07;15.43;;;9.60;99.90;;;;;;5011625;28;20545;-75
2023/04/19 01:57:19;;;;;;;28.80;17.70;;;9.50;99.90;;;;;;5008055;28;20454;-74
2023/04/19 01:59:46;;;;;;;24.70;16.17;;;9.60;99.90;;;;;;5012488;28;20548;-74
2023/04/19 02:02:12;;;;;;;27.83;16.57;;;9.50;99.90;;;;;;5012468;28;20482;-74
2023/04/19 02:04:39;;;;;;;27.53;17.63;;;9.50;99.90;;;;;;5008162;28;20518;-74
2023/04/19 02:07:06;;;;;;;23.23;15.73;;;9.50;99.90;;;;;;5012268;28;20459;-75
2023/04/19 02:09:35;;;;;;;25.50;16.43;;;9.50;99.90;;;;;;5012076;28;20475;-75
2023/04/19 02:12:02;;;;;;;30.80;16.97;;;9.60;99.90;;;;;;5011687;28;20570;-75
2023/04/19 02:14:30;;;;;;;23.57;16.70;;;9.50;99.90;;;;;;5011927;28;21072;-75
2023/04/19 02:16:57;;;;;;;27.77;16.07;;;9.60;99.90;;;;;;5009705;28;20467;-75
2023/04/19 02:19:24;;;;;;;25.00;16.20;;;9.60;99.90;;;;;;5006439;28;20467;-75
2023/04/19 02:21:50;;;;;;;29.40;17.00;;;9.60;99.90;;;;;;5011941;28;20486;-75
2023/04/19 02:24:17;;;;;;;25.30;17.33;;;9.60;99.90;;;;;;5006692;28;20458;-75
2023/04/19 02:26:43;;;;;;;24.17;16.80;;;9.60;99.90;;;;;;4993219;28;20941;-75
2023/04/19 02:29:10;;;;;;;24.30;17.20;;;9.60;99.90;;;;;;5011911;28;20487;-75
2023/04/19 02:31:38;;;;;;;24.93;16.30;;;9.60;99.90;;;;;;5005015;28;20464;-74
2023/04/19 02:34:04;;;;;;;25.03;16.47;;;9.60;99.90;;;;;;5011485;28;20459;-75
2023/04/19 02:36:32;;;;;;;21.00;15.17;;;9.60;99.90;;;;;;5011321;28;20490;-75
2023/04/19 02:38:59;;;;;;;23.67;16.67;;;9.60;99.90;;;;;;5009512;28;20483;-75
2023/04/19 02:41:25;;;;;;;23.83;16.40;;;9.60;99.90;;;;;;5011866;28;20455;-75
2023/04/19 02:43:52;;;;;;;21.70;16.20;;;9.70;99.90;;;;;;5011171;28;20454;-74
2023/04/19 02:46:19;;;;;;;27.03;17.70;;;9.60;99.90;;;;;;5011836;28;20447;-74
2023/04/19 02:48:46;;;;;;;24.87;17.07;;;9.60;99.90;;;;;;5007152;28;20487;-74
2023/04/19 02:51:16;;;;;;;27.20;17.50;;;9.60;99.90;;;;;;5011056;28;20464;-74
2023/04/19 02:53:42;;;;;;;26.03;16.17;;;9.60;99.90;;;;;;5011490;28;20455;-74
2023/04/19 02:56:09;;;;;;;27.53;17.20;;;9.60;99.90;;;;;;5011562;28;20542;-74
2023/04/19 02:58:36;;;;;;;25.20;17.83;;;9.60;99.90;;;;;;5008874;28;20958;-74
2023/04/19 03:01:02;;;;;;;25.13;16.20;;;9.60;99.90;;;;;;5011190;28;20463;-74
2023/04/19 03:03:29;;;;;;;27.97;18.17;;;9.60;99.90;;;;;;5010568;28;20830;-74
2023/04/19 03:05:57;;;;;;;29.60;17.47;;;9.60;99.90;;;;;;5008671;28;20460;-74
2023/04/19 03:08:24;;;;;;;25.57;18.40;;;9.60;99.90;;;;;;5011225;28;20529;-75
2023/04/19 03:10:51;;;;;;;24.10;17.07;;;9.60;99.90;;;;;;5011336;28;20455;-74
2023/04/19 03:13:17;;;;;;;30.50;18.23;;;9.60;99.90;;;;;;5010741;28;20513;-74
2023/04/19 03:15:44;;;;;;;31.47;18.40;;;9.60;99.90;;;;;;5011087;28;20487;-74
2023/04/19 03:18:10;;;;;;;29.03;17.33;;;9.60;99.90;;;;;;5007362;28;20466;-75
2023/04/19 03:20:37;;;;;;;29.30;18.30;;;9.60;99.90;;;;;;5011250;28;20502;-74
2023/04/19 03:23:05;;;;;;;26.43;17.47;;;9.60;99.90;;;;;;5010695;28;20470;-74
2023/04/19 03:25:32;;;;;;;36.63;17.87;;;9.50;99.90;;;;;;5008856;28;20939;-75
2023/04/19 03:27:59;;;;;;;28.83;16.77;;;9.50;99.90;;;;;;5010560;28;20458;-74
2023/04/19 03:30:25;;;;;;;31.37;17.50;;;9.50;99.90;;;;;;5010809;28;20482;-75
2023/04/19 03:32:52;;;;;;;32.27;17.50;;;9.50;99.90;;;;;;5005018;28;20463;-75
2023/04/19 03:35:19;;;;;;;26.30;18.30;;;9.50;99.90;;;;;;5010881;28;20975;-75
2023/04/19 03:37:46;;;;;;;24.17;16.00;;;9.50;99.90;;;;;;5010675;28;20487;-74
2023/04/19 03:40:14;;;;;;;27.10;17.70;;;9.50;99.90;;;;;;5004348;28;20504;-75
2023/04/19 03:42:40;;;;;;;28.60;18.10;;;9.50;99.90;;;;;;5008575;28;20447;-75
2023/04/19 03:45:08;;;;;;;26.67;17.77;;;9.50;99.90;;;;;;5000730;28;20459;-74
2023/04/19 03:47:35;;;;;;;27.43;17.60;;;9.50;99.90;;;;;;5011116;28;20501;-75
2023/04/19 03:50:01;;;;;;;29.93;17.50;;;9.50;99.90;;;;;;5009954;28;20492;-75
2023/04/19 03:52:28;;;;;;;24.00;16.47;;;9.50;99.90;;;;;;5010464;28;21043;-75
2023/04/19 03:54:54;;;;;;;39.80;17.40;;;9.50;99.90;;;;;;5010457;28;20467;-75
2023/04/19 03:57:22;;;;;;;29.97;18.90;;;9.50;99.90;;;;;;5010063;28;20455;-75
2023/04/19 03:59:49;;;;;;;24.47;16.30;;;9.40;99.90;;;;;;5010590;28;20479;-75
2023/04/19 04:02:16;;;;;;;28.20;17.70;;;9.40;99.90;;;;;;5010609;28;20459;-75
2023/04/19 04:04:42;;;;;;;29.23;18.17;;;9.40;99.90;;;;;;5010467;28;20451;-75
2023/04/19 04:07:09;;;;;;;32.57;17.87;;;9.40;99.90;;;;;;5010234;28;20467;-74
2023/04/19 04:09:36;;;;;;;27.30;17.40;;;9.40;99.90;;;;;;5008860;28;20529;-75
2023/04/19 04:12:02;;;;;;;23.77;15.87;;;9.40;99.90;;;;;;5010855;28;20606;-75
2023/04/19 04:14:30;;;;;;;26.80;17.10;;;9.40;99.90;;;;;;5010585;28;20544;-75
2023/04/19 04:16:57;;;;;;;30.60;17.80;;;9.40;99.90;;;;;;5005941;28;20488;-75
2023/04/19 04:19:24;;;;;;;26.83;16.60;;;9.40;99.90;;;;;;5014546;28;20474;-72
2023/04/19 04:21:51;;;;;;;28.67;16.60;;;9.40;99.90;;;;;;5014083;28;20458;-73
2023/04/19 04:24:19;;;;;;;24.30;15.50;;;9.40;99.90;;;;;;5008885;28;20548;-73
2023/04/19 04:26:45;;;;;;;24.50;16.23;;;9.40;99.90;;;;;;5011757;28;20455;-73
2023/04/19 04:29:12;;;;;;;24.10;16.57;;;9.40;99.90;;;;;;5014303;28;20475;-73
2023/04/19 04:31:40;;;;;;;24.83;15.63;;;9.40;99.90;;;;;;5014514;28;20970;-73
2023/04/19 04:34:08;;;;;;;21.50;15.07;;;9.40;99.90;;;;;;5013853;28;20520;-73
2023/04/19 04:36:35;;;;;;;30.90;15.20;;;9.40;99.90;;;;;;5013610;28;20483;-72
2023/04/19 04:39:02;;;;;;;23.50;14.50;;;9.30;99.90;;;;;;5013064;28;20483;-73
2023/04/19 04:41:30;;;;;;;21.80;14.90;;;9.40;99.90;;;;;;5013682;28;20443;-72
2023/04/19 04:43:57;;;;;;;22.63;14.60;;;9.40;99.90;;;;;;5011926;28;21068;-72
2023/04/19 04:46:23;;;;;;;25.33;14.87;;;9.40;99.90;;;;;;5013730;28;20458;-73
2023/04/19 04:48:51;;;;;;;24.17;14.30;;;9.40;99.90;;;;;;5013396;28;20466;-73
2023/04/19 04:51:18;;;;;;;24.57;14.90;;;9.50;99.90;;;;;;5013368;28;20454;-73
2023/04/19 04:53:46;;;;;;;20.30;13.50;;;9.50;99.90;;;;;;5013433;28;20458;-73
2023/04/19 04:56:12;;;;;;;25.10;14.87;;;9.50;99.90;;;;;;5013738;28;20569;-73
2023/04/19 04:58:39;;;;;;;19.83;13.80;;;9.50;99.90;;;;;;5009008;28;20486;-73
2023/04/19 05:01:05;;;;;;;19.73;13.47;;;9.50;99.90;;;;;;5013622;28;20525;-73
2023/04/19 05:03:32;;;;;;;22.03;13.23;;;9.40;99.90;;;;;;5012982;28;20454;-73
2023/04/19 05:06:00;;;;;;;20.23;12.50;;;9.40;99.90;;;;;;5013779;28;21061;-73
2023/04/19 05:08:27;;;;;;;19.20;12.70;;;9.40;99.90;;;;;;5013477;28;20469;-73
2023/04/19 05:10:53;;;;;;;19.73;12.07;;;9.40;99.90;;;;;;5013589;28;20447;-73
2023/04/19 05:13:20;;;;;;;18.83;12.40;;;9.40;99.90;;;;;;5013174;28;20447;-73
2023/04/19 05:15:47;;;;;;;22.30;13.00;;;9.40;99.90;;;;;;5013092;28;20487;-73
2023/04/19 05:18:13;;;;;;;17.80;12.30;;;9.40;99.90;;;;;;5013014;28;20478;-73
2023/04/19 05:20:40;;;;;;;15.83;11.10;;;9.40;99.90;;;;;;5009459;28;20498;-73
2023/04/19 05:23:10;;;;;;;16.63;10.90;;;9.40;99.90;;;;;;5012986;28;20947;-71
2023/04/19 05:25:36;;;;;;;15.30;10.30;;;9.50;99.90;;;;;;4997584;28;20467;-71
2023/04/19 05:28:03;;;;;;;14.53;9.70;;;9.50;99.90;;;;;;4996726;28;20459;-71
2023/04/19 05:30:30;;;;;;;12.57;9.10;;;9.50;99.90;;;;;;5012165;28;20550;-71
2023/04/19 05:32:57;;;;;;;13.97;10.17;;;9.50;99.90;;;;;;5013109;28;20444;-71
2023/04/19 05:35:24;;;;;;;14.33;9.87;;;9.50;99.90;;;;;;5012982;28;20463;-72
2023/04/19 05:37:51;;;;;;;13.00;8.93;;;9.50;99.90;;;;;;5013071;28;20462;-71
2023/04/19 05:40:19;;;;;;;12.43;9.27;;;9.50;99.90;;;;;;5006927;28;20483;-72
2023/04/19 05:42:46;;;;;;;14.17;7.90;;;9.40;99.90;;;;;;5012261;28;20459;-72
2023/04/19 05:45:14;;;;;;;13.83;8.80;;;9.40;99.90;;;;;;5012532;28;20455;-71
2023/04/19 05:47:41;;;;;;;12.67;8.40;;;9.40;99.90;;;;;;5012873;28;20462;-71
2023/04/19 05:50:08;;;;;;;11.70;8.10;;;9.40;99.90;;;;;;5003935;28;21049;-71
2023/04/19 05:52:34;;;;;;;12.10;8.43;;;9.40;99.90;;;;;;5011769;28;20447;-71
2023/04/19 05:55:01;;;;;;;14.20;8.03;;;9.40;99.90;;;;;;5013237;28;20460;-71
2023/04/19 05:57:29;;;;;;;9.77;7.83;;;9.40;99.90;;;;;;4992883;28;20483;-71
2023/04/19 05:59:56;;;;;;;16.50;7.93;;;9.40;99.90;;;;;;5002610;28;20533;-71
2023/04/19 06:02:22;;;;;;;11.67;7.53;;;9.40;99.90;;;;;;5012030;28;20462;-71
2023/04/19 06:04:49;;;;;;;16.73;7.17;;;9.30;99.90;;;;;;5011882;28;21118;-71
2023/04/19 06:07:16;;;;;;;8.53;6.73;;;9.30;99.90;;;;;;5010257;28;20469;-71
2023/04/19 06:09:42;;;;;;;10.27;7.20;;;9.30;99.90;;;;;;4992061;28;20471;-71
2023/04/19 06:12:09;;;;;;;11.90;7.10;;;9.30;99.90;;;;;;4992878;28;20460;-72
2023/04/19 06:14:38;;;;;;;9.97;6.17;;;9.30;99.90;;;;;;4992498;28;20506;-71
2023/04/19 06:17:04;;;;;;;7.50;6.10;;;9.30;99.90;;;;;;4992502;28;20492;-71
2023/04/19 06:19:32;;;;;;;9.67;6.57;;;9.30;99.90;;;;;;5007210;28;20482;-71
2023/04/19 06:21:59;;;;;;;8.27;6.10;;;9.40;99.90;;;;;;5014505;28;20491;-72
2023/04/19 06:24:26;;;;;;;14.10;6.10;;;9.40;99.90;;;;;;5016765;28;20831;-72
2023/04/19 06:26:53;;;;;;;9.77;6.40;;;9.40;99.90;;;;;;5017962;28;20827;-71
2023/04/19 06:29:20;;;;;;;8.33;6.20;;;9.40;99.90;;;;;;5017765;28;20466;-70
2023/04/19 06:31:48;;;;;;;8.90;6.90;;;9.40;99.90;;;;;;5017943;28;20450;-71
2023/04/19 06:34:15;;;;;;;6.77;5.93;;;9.40;99.90;;;;;;5017595;28;20504;-71
2023/04/19 06:36:41;;;;;;;10.43;6.47;;;9.40;99.90;;;;;;5017673;28;21101;-70
2023/04/19 06:39:08;;;;;;;8.97;6.30;;;9.40;99.90;;;;;;5016078;28;21427;-72
2023/04/19 06:41:35;;;;;;;7.93;6.27;;;9.40;99.90;;;;;;5016586;28;21132;-72
2023/04/19 06:44:01;;;;;;;7.27;6.17;;;9.40;99.90;;;;;;5017567;28;20516;-72
2023/04/19 06:46:28;;;;;;;8.60;6.70;;;9.40;99.90;;;;;;5017298;28;20458;-72
2023/04/19 06:48:56;;;;;;;7.93;6.37;;;9.40;99.90;;;;;;5016970;28;20474;-72
2023/04/19 06:51:23;;;;;;;7.17;6.30;;;9.40;99.90;;;;;;5017275;28;20988;-72
2023/04/19 06:53:50;;;;;;;9.73;5.63;;;9.40;99.90;;;;;;5016327;28;20469;-73
2023/04/19 06:56:17;;;;;;;8.70;6.10;;;9.40;99.90;;;;;;5017580;28;20481;-72
2023/04/19 06:58:43;;;;;;;6.97;5.97;;;9.40;99.90;;;;;;5016508;28;20486;-72
2023/04/19 07:01:10;;;;;;;6.30;5.70;;;9.40;99.90;;;;;;5017221;28;20513;-72
2023/04/19 07:03:37;;;;;;;7.83;5.50;;;9.40;99.90;;;;;;5015828;28;20466;-72
2023/04/19 07:06:05;;;;;;;9.20;6.03;;;9.50;99.90;;;;;;5017137;28;20451;-72
2023/04/19 07:08:32;;;;;;;7.53;6.63;;;9.50;99.90;;;;;;5017990;28;20450;-72
2023/04/19 07:10:58;;;;;;;7.87;6.10;;;9.60;99.90;;;;;;5016828;28;20451;-72
2023/04/19 07:13:25;;;;;;;8.10;6.70;;;9.60;99.90;;;;;;5017283;28;20520;-72
2023/04/19 07:15:51;;;;;;;7.60;6.00;;;9.70;99.90;;;;;;5015570;28;20456;-71
2023/04/19 07:18:18;;;;;;;10.13;6.13;;;9.80;99.90;;;;;;5016243;28;20458;-72
2023/04/19 07:20:47;;;;;;;7.47;6.63;;;9.80;99.90;;;;;;5017086;28;20512;-72
2023/04/19 07:23:15;;;;;;;7.70;6.77;;;9.90;99.90;;;;;;5016583;28;20466;-71
2023/04/19 07:25:42;;;;;;;8.47;5.90;;;10.00;99.90;;;;;;5017269;28;20458;-72
2023/04/19 07:28:09;;;;;;;7.80;6.30;;;10.10;99.90;;;;;;5017214;28;20450;-72
2023/04/19 07:30:36;;;;;;;9.20;6.10;;;10.30;99.90;;;;;;5015727;28;20552;-72
2023/04/19 07:33:03;;;;;;;6.50;5.60;;;10.70;99.90;;;;;;5016544;28;20940;-72
2023/04/19 07:35:30;;;;;;;8.30;6.27;;;11.10;99.90;;;;;;5016766;28;20465;-72
2023/04/19 07:37:57;;;;;;;7.87;5.97;;;11.20;99.90;;;;;;5016586;28;20478;-72
2023/04/19 07:40:25;;;;;;;8.23;6.30;;;11.20;99.90;;;;;;5015654;28;20475;-70
2023/04/19 07:42:51;;;;;;;6.80;6.10;;;11.20;99.90;;;;;;5015813;28;20454;-70
2023/04/19 07:45:18;;;;;;;8.70;6.67;;;11.30;99.90;;;;;;5015864;28;21029;-71
2023/04/19 07:47:45;;;;;;;8.10;6.40;;;11.30;99.90;;;;;;5016591;28;20864;-71
2023/04/19 07:50:11;;;;;;;9.67;6.30;;;11.10;99.90;;;;;;5016630;28;20504;-71
2023/04/19 07:52:38;;;;;;;10.20;7.00;;;11.20;99.90;;;;;;5017742;28;20455;-71
2023/04/19 07:55:06;;;;;;;11.40;6.93;;;11.20;99.90;;;;;;5019165;28;20514;-71
2023/04/19 07:57:34;;;;;;;8.67;6.60;;;11.20;99.90;;;;;;5020469;28;21016;-71
2023/04/19 08:00:01;;;;;;;8.67;6.63;;;11.40;99.90;;;;;;5020129;28;20503;-71
2023/04/19 08:02:28;;;;;;;8.63;7.03;;;11.60;99.90;;;;;;5020187;28;20842;-71
2023/04/19 08:04:55;;;;;;;11.67;6.23;;;11.80;99.90;;;;;;5019647;28;20508;-72
2023/04/19 08:07:22;;;;;;;7.70;6.20;;;12.10;99.90;;;;;;5021266;28;20457;-72
2023/04/19 08:09:49;;;;;;;12.90;6.57;;;12.30;99.90;;;;;;5019458;28;20489;-71
2023/04/19 08:12:17;;;;;;;11.93;7.10;;;12.50;99.90;;;;;;5019475;28;20451;-72
2023/04/19 08:14:45;;;;;;;9.77;7.00;;;12.60;99.90;;;;;;5020586;28;20454;-72
2023/04/19 08:17:12;;;;;;;14.37;6.60;;;12.70;99.90;;;;;;5020392;28;20486;-71
2023/04/19 08:19:38;;;;;;;9.93;6.83;;;12.50;99.90;;;;;;5019751;28;20470;-71
2023/04/19 08:22:05;;;;;;;8.97;6.17;;;12.40;99.90;;;;;;5020364;28;20455;-71
2023/04/19 08:24:32;;;;;;;10.93;6.50;;;12.30;99.90;;;;;;5019435;28;20501;-72
2023/04/19 08:26:58;;;;;;;8.40;6.57;;;12.50;99.90;;;;;;5018877;28;20454;-71
2023/04/19 08:29:25;;;;;;;8.37;6.67;;;12.70;99.90;;;;;;5018980;28;20521;-72
2023/04/19 08:31:53;;;;;;;8.77;7.10;;;12.90;99.90;;;;;;5020027;28;20455;-72
2023/04/19 08:34:19;;;;;;;19.30;7.47;;;13.20;99.90;;;;;;5019825;28;20862;-72
2023/04/19 08:36:46;;;;;;;9.43;6.70;;;13.60;99.90;;;;;;5019716;28;20489;-72
2023/04/19 08:39:13;;;;;;;10.30;6.80;;;13.60;99.90;;;;;;5018902;28;20518;-72
2023/04/19 08:41:40;;;;;;;6.90;6.20;;;13.80;99.90;;;;;;5019942;28;20494;-72
2023/04/19 08:44:07;;;;;;;8.07;6.90;;;13.90;99.90;;;;;;5019860;28;20446;-72
2023/04/19 08:46:34;;;;;;;10.80;6.90;;;14.10;99.90;;;;;;5020070;28;20492;-72
2023/04/19 08:49:04;;;;;;;11.77;7.20;;;14.10;99.90;;;;;;5019488;28;20549;-72
2023/04/19 08:51:32;;;;;;;11.20;6.93;;;13.90;99.90;;;;;;5018685;28;20898;-72
2023/04/19 08:53:59;;;;;;;10.93;6.90;;;13.90;99.90;;;;;;5019566;28;21084;-72
2023/04/19 08:56:27;;;;;;;9.43;7.17;;;14.10;99.90;;;;;;5019463;28;20451;-72
2023/04/19 08:58:53;;;;;;;12.30;6.90;;;14.40;99.90;;;;;;5019729;28;20466;-72
2023/04/19 09:01:20;;;;;;;14.40;7.60;;;14.60;99.90;;;;;;5019524;28;20930;-72
2023/04/19 09:03:47;;;;;;;9.10;6.83;;;14.70;99.90;;;;;;5019168;28;20449;-72
2023/04/19 09:06:15;;;;;;;12.67;7.80;;;14.60;99.90;;;;;;5019218;28;20882;-72
2023/04/19 09:08:42;;;;;;;10.20;6.80;;;14.40;99.90;;;;;;5019744;28;20520;-72
2023/04/19 09:11:09;;;;;;;10.37;7.17;;;14.30;99.90;;;;;;5019383;28;20875;-72
2023/04/19 09:13:37;;;;;;;7.63;6.63;;;14.40;99.90;;;;;;5019181;28;20536;-72
2023/04/19 09:16:06;;;;;;;10.90;7.67;;;14.60;99.90;;;;;;5019000;28;20934;-72
2023/04/19 09:18:33;;;;;;;9.90;7.30;;;14.80;99.90;;;;;;5019620;28;20482;-72
2023/04/19 09:21:00;;;;;;;15.43;7.57;;;14.60;99.90;;;;;;5018979;28;20894;-72
2023/04/19 09:23:28;;;;;;;7.93;7.13;;;14.40;99.90;;;;;;5019502;28;20465;-72
2023/04/19 09:25:56;;;;;;;10.30;7.67;;;14.50;99.90;;;;;;5019065;28;20454;-72
2023/04/19 09:28:23;;;;;;;9.57;7.43;;;14.50;99.90;;;;;;5019054;28;20442;-72
2023/04/19 09:30:50;;;;;;;8.80;7.90;;;14.50;99.90;;;;;;5019155;28;20458;-72
2023/04/19 09:33:31;;;;;;;12.67;7.60;;;14.10;99.90;;;;;;5019345;28;20540;-72
2023/04/19 09:35:59;;;;;;;10.53;7.73;;;14.20;99.90;;;;;;5018914;28;20486;-72
2023/04/19 09:38:26;;;;;;;11.60;7.93;;;14.60;99.90;;;;;;5019147;28;20482;-72
2023/04/19 09:41:06;;;;;;;8.77;7.60;;;14.70;99.90;;;;;;5016036;28;20474;-72
2023/04/19 09:43:34;;;;;;;9.90;7.03;;;14.60;99.90;;;;;;5016742;28;20550;-72
2023/04/19 09:46:00;;;;;;;9.30;7.17;;;14.60;99.90;;;;;;5014565;28;20458;-71
2023/04/19 09:48:27;;;;;;;11.73;7.03;;;14.40;99.90;;;;;;5017634;28;20454;-71
2023/04/19 09:50:55;;;;;;;9.90;7.53;;;14.40;99.90;;;;;;5018798;28;20528;-72
2023/04/19 09:53:23;;;;;;;8.13;6.93;;;14.70;99.90;;;;;;5019154;28;20816;-72
2023/04/19 09:55:50;;;;;;;12.00;7.50;;;15.00;99.90;;;;;;5017014;28;21098;-71
2023/04/19 09:58:19;;;;;;;8.77;7.27;;;14.80;99.90;;;;;;5018862;28;20564;-72
2023/04/19 10:00:46;;;;;;;7.10;6.40;;;15.00;99.90;;;;;;5018123;28;20514;-72
2023/04/19 10:03:14;;;;;;;7.77;6.33;;;15.20;99.90;;;;;;5018573;28;20463;-71
2023/04/19 10:05:42;;;;;;;10.90;7.10;;;15.30;99.90;;;;;;5016712;28;20934;-72
2023/04/19 10:08:11;;;;;;;10.20;7.60;;;15.30;99.90;;;;;;5016672;28;20510;-72
2023/04/19 10:10:40;;;;;;;10.80;7.63;;;15.20;99.90;;;;;;5017689;28;20541;-71
2023/04/19 10:13:08;;;;;;;13.03;6.70;;;15.40;99.90;;;;;;5017755;28;20458;-71
2023/04/19 10:15:36;;;;;;;7.83;6.70;;;15.50;99.90;;;;;;5017835;28;20421;-72
2023/04/19 10:18:04;;;;;;;13.02;6.57;;;15.30;99.90;;;;;;5019709;28;20507;-73
2023/04/19 10:20:37;;;;;;;13.73;6.10;;;15.60;99.90;;;;;;5014910;28;20453;-71
2023/04/19 10:23:07;;;;;;;8.20;5.50;;;15.90;99.90;;;;;;5014636;28;20483;-71
2023/04/19 10:25:37;;;;;;;9.63;6.90;;;16.30;99.90;;;;;;5016419;28;20203;-71
2023/04/19 10:28:03;;;;;;;9.40;6.43;;;16.10;99.90;;;;;;5014180;28;20451;-72
2023/04/19 10:30:30;;;;;;;10.30;6.33;;;16.10;99.90;;;;;;5015948;28;20867;-72
2023/04/19 10:33:01;;;;;;;8.70;6.53;;;16.00;99.90;;;;;;5016612;28;20459;-72
2023/04/19 10:35:34;;;;;;;7.87;6.17;;;15.90;99.90;;;;;;5016091;28;20462;-71
2023/04/19 10:38:09;;;;;;;12.07;6.40;;;16.10;99.90;;;;;;5016795;28;20498;-72
2023/04/19 10:40:56;;;;;;;12.90;7.07;;;16.20;99.90;;;;;;5016453;28;20478;-71
2023/04/19 10:43:23;;;;;;;6.40;4.93;;;16.40;99.90;;;;;;5016433;28;20530;-71
2023/04/19 10:45:50;;;;;;;6.60;5.23;;;16.30;99.90;;;;;;5016741;28;20513;-71
2023/04/19 10:48:37;;;;;;;7.40;5.70;;;16.30;99.90;;;;;;5016307;28;20446;-71
2023/04/19 10:51:11;;;;;;;7.30;5.63;;;16.40;99.90;;;;;;5016191;28;20871;-71
2023/04/19 10:53:48;;;;;;;10.70;5.60;;;16.40;99.90;;;;;;5015314;28;20464;-71
2023/04/19 10:56:15;;;;;;;6.83;4.97;;;16.20;99.90;;;;;;5017192;28;20455;-71
2023/04/19 10:59:20;;;;;;;8.53;5.30;;;16.30;99.90;;;;;;5016316;28;20497;-71
2023/04/19 11:01:48;;;;;;;9.00;5.73;;;16.50;99.90;;;;;;5014726;28;20512;-71
2023/04/19 11:04:17;;;;;;;5.97;5.17;;;16.40;99.90;;;;;;5016439;28;20459;-71
2023/04/19 11:07:00;;;;;;;5.70;4.80;;;16.80;99.90;;;;;;5016074;28;20454;-71
2023/04/19 11:09:28;;;;;;;8.23;5.30;;;17.30;99.90;;;;;;5016941;28;21067;-71
2023/04/19 11:11:58;;;;;;;8.00;4.57;;;17.80;99.90;;;;;;5016366;28;20437;-71
2023/04/19 11:14:26;;;;;;;6.33;4.50;;;17.70;99.90;;;;;;5014924;28;20436;-71
2023/04/19 11:16:52;;;;;;;5.47;4.60;;;17.50;99.90;;;;;;5015500;28;20589;-71
2023/04/19 11:19:20;;;;;;;5.50;4.20;;;17.30;99.90;;;;;;5015399;28;20497;-71
2023/04/19 11:21:48;;;;;;;8.60;4.17;;;16.90;99.90;;;;;;5016969;28;20505;-71
2023/04/19 11:24:19;;;;;;;5.33;3.93;;;17.00;99.90;;;;;;5015385;28;21056;-71
2023/04/19 11:26:46;;;;;;;4.73;4.17;;;17.30;99.90;;;;;;5015509;28;20451;-71
2023/04/19 11:29:13;;;;;;;11.73;4.70;;;17.20;99.90;;;;;;5016474;28;20470;-70
2023/04/19 11:31:39;;;;;;;5.60;4.20;;;17.20;99.90;;;;;;5017245;28;20489;-71
2023/04/19 11:34:06;;;;;;;4.13;3.60;;;17.40;99.90;;;;;;5016120;28;20458;-71
2023/04/19 11:36:35;;;;;;;7.27;3.57;;;17.40;99.90;;;;;;5014984;28;20491;-71
2023/04/19 11:39:04;;;;;;;4.73;3.50;;;17.50;99.90;;;;;;5012695;28;20497;-70
2023/04/19 11:41:37;;;;;;;5.70;3.60;;;17.60;99.90;;;;;;5017358;28;20533;-71
2023/04/19 11:44:04;;;;;;;4.40;3.90;;;17.70;99.90;;;;;;5015773;28;20466;-71
2023/04/19 11:46:31;;;;;;;3.60;3.10;;;17.60;99.90;;;;;;5013864;28;20525;-70
2023/04/19 11:48:57;;;;;;;3.90;3.17;;;17.40;99.90;;;;;;5014880;28;20454;-71
2023/04/19 11:51:25;;;;;;;4.23;3.20;;;17.70;99.90;;;;;;5015368;28;20440;-71
2023/04/19 11:53:53;;;;;;;5.97;3.90;;;17.80;99.90;;;;;;5015420;28;20880;-71
2023/04/19 11:56:19;;;;;;;7.13;3.70;;;17.90;99.90;;;;;;5014451;28;20430;-70
2023/04/19 11:58:47;;;;;;;4.93;3.20;;;18.30;99.90;;;;;;5015260;28;20890;-70
2023/04/19 12:01:16;;;;;;;4.47;2.97;;;18.30;99.90;;;;;;5015837;28;20538;-71
2023/04/19 12:03:46;;;;;;;6.20;3.10;;;18.30;99.90;;;;;;5016313;28;20458;-71
2023/04/19 12:06:14;;;;;;;2.93;2.60;;;18.40;99.90;;;;;;5016539;28;20909;-71
2023/04/19 12:08:44;;;;;;;4.77;2.90;;;18.20;98.60;;;;;;5016340;28;20465;-70
2023/04/19 12:11:12;;;;;;;5.43;3.47;;;18.30;99.90;;;;;;5016880;28;20892;-70
2023/04/19 12:13:39;;;;;;;4.13;3.73;;;18.60;99.90;;;;;;5017012;28;20492;-71
2023/04/19 12:16:06;;;;;;;4.03;3.33;;;18.60;99.90;;;;;;5016477;28;20453;-71
2023/04/19 12:18:47;;;;;;;6.40;3.30;;;18.80;99.90;;;;;;5015503;28;20464;-71
2023/04/19 12:21:27;;;;;;;3.00;2.80;;;18.80;99.90;;;;;;5013577;28;20461;-71
2023/04/19 12:23:55;;;;;;;3.77;3.40;;;19.00;99.90;;;;;;5015580;28;20536;-70
2023/04/19 12:26:24;;;;;;;3.57;2.90;;;19.30;98.00;;;;;;5016410;28;20492;-71
2023/04/19 12:28:50;;;;;;;5.10;2.97;;;19.00;96.30;;;;;;5015851;28;20434;-71
2023/04/19 12:31:17;;;;;;;3.43;3.07;;;18.70;97.60;;;;;;5016532;28;20430;-71
2023/04/19 12:33:43;;;;;;;4.03;2.50;;;18.80;97.60;;;;;;5016551;28;20421;-71
2023/04/19 12:36:10;;;;;;;3.00;2.27;;;18.80;96.10;;;;;;5015286;28;20458;-70
2023/04/19 12:38:37;;;;;;;6.60;2.83;;;19.10;95.20;;;;;;5016772;28;20999;-71
2023/04/19 12:41:04;;;;;;;4.40;2.43;;;19.30;93.60;;;;;;5020007;28;20434;-71
2023/04/19 12:43:32;;;;;;;2.40;2.20;;;19.20;92.60;;;;;;5018593;28;20434;-71
2023/04/19 12:45:59;;;;;;;2.70;2.50;;;18.80;91.40;;;;;;5019527;28;20428;-72